BFL - Meadows Fld

Pirep is a free, collaborative database of all public and private airports located within the United States. All pilots are welcome to contribute, edit, and improve any airport they have local knowledge about, no registration required.
Uploaded photos will be licensed under a CC BY-SA 4.0 license. Please only upload photos you have the rights to use.
Tags
Public
METAR / TAF
Flying Clubs
Edit Tags
Food
Camping
Lodging
Car Rental
Bicycles
Swimming
Golfing
Fishing
Hot Springs
Museum
Airpark
Upcoming Events
No upcoming events. Is anything happening here soon?
*
*
*

Where exactly on/near the airport is this event taking place?

Is there a webpage with more information for this event?

Who should be contacted for more information?

What is this event all about?

Repeat every
Description
Transient Parking
Fuel Location
Landing & Tie-down Fees
Crew Car Availability
Flying Clubs
Last updated: 2024-03-12 20:11:29 PDT
WiFi Access
Airport Statistics
Location: Bakersfield, CA
Elevation: 509ft
Sectional: Los Angeles
Activation date: Apr 1940
Fuel: 100, 100LL, A (prices)
Runway 12L/30R: 10,849ft
Runway 12R/30L: 7,700ft
Access: Open to the public
Current Weather — VFR
  • Weather data is strictly informational and not for flight planning purposes.
  • METAR
    2024-05-29 08:54:00 PDT
    Ceiling Wind Temperature Dewpoint Weather Visbility
    Sky clear 340° @ 4kt 75°F 39°F N/A 10SM
    Raw: KBFL 291554Z 34004KT 10SM CLR 24/04 A3005 RMK AO2 SLP171 T02390044
  • TAF
    2024-05-29 05:00:00 PDT – 2024-05-29 10:00:00 PDT
    Ceiling Wind Weather Visbility
    Sky clear Variable N/A 6SM
    Clouds: @ ft
    Raw: KBFL 291120Z 2912/3012 VRB03KT P6SM SKC FM291700 31011G18KT P6SM SKC FM300300 35005KT P6SM SKC
  • TAF
    2024-05-29 10:00:00 PDT – 2024-05-29 20:00:00 PDT
    Ceiling Wind Weather Visbility
    Sky clear 310° @ 11kt, gusts 18kt N/A 6SM
    Clouds: @ ft
    Raw: KBFL 291120Z 2912/3012 VRB03KT P6SM SKC FM291700 31011G18KT P6SM SKC FM300300 35005KT P6SM SKC
  • TAF
    2024-05-29 20:00:00 PDT – 2024-05-30 05:00:00 PDT
    Ceiling Wind Weather Visbility
    Sky clear 350° @ 5kt N/A 6SM
    Clouds: @ ft
    Raw: KBFL 291120Z 2912/3012 VRB03KT P6SM SKC FM291700 31011G18KT P6SM SKC FM300300 35005KT P6SM SKC
Click/tap to add an annotation marker to the map
Airport Webcams
No webcams added yet.
Direct links to live image URLs will be displayed inline on this page. URLs to separate webpages will be linked to.
URL:
Direct links to live image URLs will be displayed inline on this page. URLs to separate webpages will be linked to.
URL:
Remarks
  • Index c arff available
  • Mil helicopters make all apchs to ry or paved areas. minimize hovering & power to avoid causing blowing dust; wheeled helicopters gnd taxi only. formation join-up aft dep only.
  • Cap squadron on arpt.
  • Right base opns for ry 30r establish wings level on final apch no lower than 300 ft agl.
  • Noise sensitive areas s & e of arpt recommended turbojet trng hrs wkday 0800-2200 wkends 1200-2200; no more than ten practice apchs per hr.
Comments
Leave a comment What was your experience like at this airport?